Altamonte Springs, Florida
Current Conditions -  °F | °C
As of 8:53 PM on Saturday 22 Nov 2014 (Local Time) from KORL Reporting Station
Overcast Overcast  
Wind Chill: 70°   Ceiling: 2600
Heat Index: 70°   Visibility: 10mi
Dew Point: 67°   Wind: 10mph
Humidity: 90%   Direction: 80°E
Pressure: 30.14"   Gusts: NA
Location:  28.67°N, 81.36°W
Report Text: KORL 230153Z 08009KT 10SM BKN026 OVC034 21/19 A3014 RMK AO2 SLP210 T02110194
Loading
Personal Weather Stations






























Interactive Weather Map New forecast layout! Learn more

10-Day Weather Forecast

Advertisements
Track Severe Weather on mobile